Latest Weather Observations for Charlton

IDV60801

Issued at 11:05 pm EST Thursday 24 April 2014 (issued every 30 minutes, with the page automatically refreshed every 10 minutes)

About weather observations | Map of weather stations | Latest weather observations for VIC | Other Formats
Station Details ID: 080128 Name: CHARLTON Lat: -36.28 Lon: 143.33 Height: 131.7 m
Data from the previous 72 hours. | See also: Recent months at Charlton
Date/Time
EST
Temp
°C
App
Temp
°C
Dew
Point
Rel
Hum
%
Delta-T
°C
Wind Press
QNH
hPa
Press
MSL
hPa
Rain
since 9 am
mm
Dir
 
Spd
km/h
Gust
km/h
Spd
kts
Gust
kts
24/11:00pm 6.9 5.0 3.0 76 1.6 S 2 6 1 3 1020.5 - 0.0
24/10:30pm 7.7 5.1 3.0 72 2.0 S 6 9 3 5 1020.5 - 0.0
24/10:00pm 8.0 4.8 3.1 71 2.1 SSE 9 11 5 6 1020.5 - 0.0
24/09:30pm 7.8 5.0 2.9 71 2.1 S 7 11 4 6 1020.5 - 0.0
24/09:00pm 8.6 5.9 2.8 67 2.5 S 6 7 3 4 1020.3 1020.2 0.0
24/08:30pm 9.1 6.4 2.9 65 2.7 S 6 7 3 4 1020.1 - 0.0
24/08:00pm 10.1 7.2 2.7 60 3.2 S 7 9 4 5 1019.7 - 0.0
24/07:30pm 12.1 8.2 3.3 55 3.9 SSE 13 19 7 10 1019.5 - 0.0
24/07:00pm 12.2 8.2 2.9 53 4.1 SSE 13 15 7 8 1019.1 - 0.0
24/06:30pm 12.7 9.0 2.3 49 4.6 SSE 11 13 6 7 1018.8 - 0.0
24/06:00pm 14.1 10.0 2.0 44 5.3 SSE 13 17 7 9 1018.3 1018.2 0.0
24/05:30pm 15.7 10.9 2.5 41 6.0 SSE 17 22 9 12 1017.8 - 0.0
24/05:00pm 17.0 11.9 3.0 39 6.5 SE 19 28 10 15 1017.6 - 0.0
24/04:30pm 18.2 15.2 4.0 39 6.7 S 9 17 5 9 1017.2 - 0.0
24/04:00pm 18.7 15.3 4.1 38 7.0 S 11 15 6 8 1016.9 - 0.0
24/03:30pm 18.8 15.7 3.4 36 7.3 SSE 9 17 5 9 1016.8 - 0.0
24/03:00pm 19.2 16.0 4.9 39 7.0 S 11 17 6 9 1016.7 1016.6 0.0
24/02:30pm 18.9 15.0 3.5 36 7.3 S 13 20 7 11 1016.7 - 0.0
24/02:00pm 19.1 15.7 4.1 37 7.2 SSW 11 20 6 11 1016.6 - 0.0
24/01:30pm 18.6 14.6 4.8 40 6.7 S 15 20 8 11 1016.9 - 0.0
24/01:00pm 19.0 15.3 6.1 43 6.4 SSW 15 22 8 12 1016.9 - 0.0
24/12:30pm 19.1 16.2 8.1 49 5.7 SSW 13 28 7 15 1016.9 - 0.0
24/12:00pm 18.9 16.0 8.0 49 5.6 SSW 13 20 7 11 1017.1 1017.0 0.0
24/11:30am 18.3 15.3 9.4 56 4.7 S 15 26 8 14 1017.1 - 0.0
24/11:00am 17.6 14.3 9.5 59 4.3 SSW 17 26 9 14 1017.0 - 0.0
24/10:30am 16.4 13.5 9.8 65 3.5 SSW 15 24 8 13 1017.1 - 0.0
24/10:00am 15.2 12.0 9.8 70 2.8 SSW 17 32 9 17 1017.0 - 0.0
24/09:30am 15.9 13.1 11.5 75 2.4 WSW 17 28 9 15 1016.5 - 0.0
24/09:00am 13.5 10.9 9.4 76 2.1 W 13 22 7 12 1016.1 1016.0 0.0
24/08:30am 12.4 10.2 7.9 74 2.2 NW 9 15 5 8 1015.6 - 0.0
24/08:00am 11.9 9.6 7.4 74 2.2 NW 9 13 5 7 1015.1 - 0.0
24/07:30am 10.9 8.1 6.8 76 2.0 WNW 11 15 6 8 1014.7 - 0.0
24/07:00am 10.6 7.6 6.0 73 2.1 WNW 11 15 6 8 1014.7 - 0.0
24/06:30am 9.3 7.3 4.3 71 2.2 WNW 4 7 2 4 1014.4 - 0.0
24/06:00am 8.6 5.7 2.8 67 2.5 WNW 7 9 4 5 1014.1 1014.0 0.0
24/05:30am 8.8 5.9 2.8 66 2.6 NW 7 9 4 5 1013.7 - 0.0
24/05:00am 8.6 5.7 2.6 66 2.5 NNW 7 9 4 5 1013.5 - 0.0
24/04:30am 9.0 6.1 2.8 65 2.7 NW 7 11 4 6 1013.3 - 0.0
24/04:00am 9.0 6.2 3.0 66 2.6 NW 7 9 4 5 1013.4 - 0.0
24/03:30am 8.7 6.0 2.9 67 2.5 NW 6 9 3 5 1013.4 - 0.0
24/03:00am 8.5 5.8 3.6 71 2.1 NNW 7 9 4 5 1013.4 1013.3 0.0
24/02:30am 6.8 4.3 3.9 82 1.2 NW 6 7 3 4 1013.5 - 0.0
24/02:00am 6.9 5.6 4.0 82 1.3 CALM 0 0 0 0 1013.5 - 0.0
24/01:30am 7.4 5.7 3.8 78 1.6 N 2 6 1 3 1013.5 - 0.0
24/01:00am 8.3 5.9 4.1 75 1.8 NNW 6 6 3 3 1013.6 - 0.0
24/12:30am 7.6 5.2 4.4 80 1.4 WNW 6 7 3 4 1013.7 - 0.0
24/12:00am 8.1 6.1 4.5 78 1.6 WNW 4 7 2 4 1013.9 1013.8 0.0
 
Date/Time
EST
Temp
°C
App
Temp
°C
Dew
Point
Rel
Hum
%
Delta-T
°C
Wind Press
QNH
hPa
Press
MSL
hPa
Rain
since 9 am
mm
Dir
 
Spd
km/h
Gust
km/h
Spd
kts
Gust
kts
23/11:30pm 8.4 6.1 4.6 77 1.7 NW 6 7 3 4 1014.1 - 0.0
23/11:00pm 8.6 7.4 4.8 77 1.7 CALM 0 0 0 0 1014.3 - 0.0
23/10:30pm 9.2 8.2 5.4 77 1.7 CALM 0 0 0 0 1014.5 - 0.0
23/10:00pm 9.3 8.1 4.7 73 2.1 CALM 0 0 0 0 1014.6 - 0.0
23/09:30pm 9.9 8.7 4.7 70 2.3 CALM 0 0 0 0 1014.7 - 0.0
23/09:00pm 10.6 8.3 4.7 67 2.7 NNW 6 7 3 4 1014.7 1014.6 0.0
23/08:30pm 10.6 8.3 4.9 68 2.6 NNW 6 7 3 4 1014.7 - 0.0
23/08:00pm 11.2 10.0 4.4 63 3.1 CALM 0 6 0 3 1014.9 - 0.0
23/07:30pm 11.7 9.4 4.7 62 3.2 NNW 6 7 3 4 1014.8 - 0.0
23/07:00pm 12.3 10.2 4.0 57 3.8 N 4 7 2 4 1014.5 - 0.0
23/06:30pm 13.8 11.4 4.1 52 4.5 N 6 7 3 4 1014.2 - 0.0
23/06:00pm 15.7 13.2 3.8 45 5.5 WNW 6 7 3 4 1014.1 1014.0 0.0
23/05:30pm 17.7 15.4 4.6 42 6.3 WSW 6 9 3 5 1014.1 - 0.0
23/05:00pm 17.9 15.4 4.5 41 6.4 W 7 11 4 6 1014.2 - 0.0
23/04:30pm 19.3 16.3 3.9 36 7.4 W 9 15 5 8 1014.3 - 0.0
23/04:00pm 18.8 15.7 3.8 37 7.1 WSW 9 15 5 8 1014.3 - 0.0
23/03:30pm 18.9 16.5 5.4 41 6.6 W 7 13 4 7 1014.4 - 0.0
23/03:00pm 18.8 15.6 4.9 40 6.7 W 11 17 6 9 1014.7 1014.6 0.0
23/02:30pm 18.4 15.3 5.6 43 6.3 W 11 17 6 9 1014.7 - 0.0
23/02:00pm 18.4 15.8 5.9 44 6.2 WSW 9 15 5 8 1014.7 - 0.0
23/01:30pm 18.2 15.5 5.4 43 6.3 WSW 9 17 5 9 1015.1 - 0.0
23/01:00pm 18.8 15.9 6.3 44 6.2 WSW 11 15 6 8 1015.7 - 0.0
23/12:30pm 18.7 15.4 6.2 44 6.2 WSW 13 19 7 10 1016.1 - 0.0
23/12:00pm 18.4 15.9 6.6 46 5.9 WSW 9 15 5 8 1016.6 1016.5 0.0
23/11:30am 17.5 14.6 6.7 49 5.4 SW 11 17 6 9 1016.9 - 0.0
23/11:00am 17.0 14.9 6.8 51 5.1 WSW 7 13 4 7 1017.2 - 0.0
23/10:30am 16.6 14.8 7.0 53 4.8 WSW 6 11 3 6 1017.6 - 0.0
23/10:00am 15.5 14.5 7.5 59 4.0 SSW 2 6 1 3 1017.7 - 0.0
23/09:30am 14.1 12.9 8.1 67 3.0 SSE 4 7 2 4 1017.8 - 0.0
23/09:00am 12.7 12.0 8.4 75 2.1 S 2 6 1 3 1017.7 1017.6 0.0
23/08:30am 10.4 9.9 8.0 85 1.2 CALM 0 0 0 0 1017.6 - 0.0
23/08:00am 8.4 7.5 7.8 96 0.3 SSW 2 7 1 4 1017.2 - 0.0
23/07:30am 6.9 5.0 6.8 99 0.0 SW 6 7 3 4 1017.0 - 0.0
23/07:00am 6.5 4.5 6.4 99 0.0 SW 6 7 3 4 1016.8 - 0.0
23/06:30am 6.8 6.0 6.7 99 0.0 CALM 0 0 0 0 1016.6 - 0.0
23/06:00am 7.1 6.3 6.7 97 0.2 CALM 0 0 0 0 1016.5 1016.4 0.0
23/05:30am 7.6 6.9 6.9 95 0.3 CALM 0 0 0 0 1016.6 - 0.0
23/05:00am 8.3 7.7 7.2 93 0.5 CALM 0 0 0 0 1016.6 - 0.0
23/04:30am 9.1 7.7 7.4 89 0.8 SSW 4 6 2 3 1016.5 - 0.0
23/04:00am 9.5 7.3 7.8 89 0.8 S 9 11 5 6 1016.3 - 0.0
23/03:30am 9.7 7.9 7.8 88 0.9 S 7 9 4 5 1016.1 - 0.0
23/03:00am 10.0 8.3 8.4 90 0.8 S 7 9 4 5 1016.4 1016.3 0.0
23/02:30am 8.9 7.6 7.8 93 0.5 S 4 7 2 4 1016.4 - 0.0
23/02:00am 9.3 8.8 7.7 90 0.8 CALM 0 0 0 0 1016.4 - 0.0
23/01:30am 9.8 8.2 7.9 88 0.9 SSE 6 7 3 4 1016.5 - 0.0
23/01:00am 10.6 8.9 8.2 85 1.2 S 7 11 4 6 1016.6 - 0.0
23/12:30am 10.7 8.7 8.6 87 1.0 S 9 13 5 7 1016.6 - 0.0
23/12:00am 11.0 9.3 8.2 83 1.4 S 7 13 4 7 1016.6 1016.5 0.0
 
Date/Time
EST
Temp
°C
App
Temp
°C
Dew
Point
Rel
Hum
%
Delta-T
°C
Wind Press
QNH
hPa
Press
MSL
hPa
Rain
since 9 am
mm
Dir
 
Spd
km/h
Gust
km/h
Spd
kts
Gust
kts
22/11:30pm 12.0 9.5 8.3 78 1.8 S 11 13 6 7 1016.8 - 0.0
22/11:00pm 12.7 10.0 9.0 78 1.9 SSE 13 17 7 9 1016.9 - 0.0
22/10:30pm 12.9 10.8 11.0 88 1.0 SSE 13 19 7 10 1017.1 - 0.0
22/10:00pm 12.9 12.0 11.3 90 0.8 S 7 17 4 9 1017.2 - 0.0
22/09:30pm 12.6 11.8 11.2 91 0.7 SSW 6 9 3 5 1016.9 - 0.0
22/09:00pm 13.6 12.8 11.8 89 1.0 S 7 9 4 5 1016.7 1016.6 0.0
22/08:30pm 13.8 13.2 11.7 87 1.1 S 6 7 3 4 1016.6 - 0.0
22/08:00pm 14.5 13.8 12.0 85 1.4 S 7 11 4 6 1016.5 - 0.0
22/07:30pm 15.1 14.4 12.1 82 1.6 S 7 9 4 5 1016.2 - 0.0
22/07:00pm 16.7 15.9 12.8 78 2.2 SSW 9 11 5 6 1015.7 - 0.0
22/06:30pm 17.2 16.3 12.5 74 2.6 SSW 9 11 5 6 1015.3 - 0.0
22/06:00pm 18.1 17.0 12.1 68 3.3 SSW 9 13 5 7 1014.9 1014.8 0.0
22/05:30pm 18.8 17.5 12.5 67 3.5 SSW 11 17 6 9 1014.5 - 0.0
22/05:00pm 19.9 18.3 12.9 64 4.0 SW 13 22 7 12 1014.3 - 0.0
22/04:30pm 20.6 19.2 12.3 59 4.7 SSW 11 17 6 9 1014.1 - 0.0
22/04:00pm 21.3 20.3 12.2 56 5.1 SSW 9 19 5 10 1013.9 - 0.0
22/03:30pm 21.5 20.2 12.4 56 5.2 S 11 15 6 8 1013.8 - 0.0
22/03:00pm 21.5 19.5 11.5 53 5.6 SW 13 19 7 10 1013.7 1013.6 0.0
22/02:30pm 22.8 21.7 11.8 50 6.2 S 9 13 5 7 1013.4 - 0.0
22/02:00pm 22.8 21.9 11.5 49 6.4 ESE 7 13 4 7 1013.3 - 0.0
22/01:30pm 22.7 21.9 11.1 48 6.5 SSW 6 9 3 5 1013.5 - 0.0
22/01:00pm 22.0 20.7 11.4 51 5.9 W 9 13 5 7 1013.7 - 0.0
22/12:30pm 21.0 19.5 10.5 51 5.8 NNW 9 17 5 9 1014.2 - 0.0
22/12:00pm 20.3 19.1 11.5 57 4.9 N 9 17 5 9 1014.4 1014.3 0.0
22/11:30am 19.7 18.6 10.7 56 4.9 N 7 17 4 9 1014.8 - 0.0
22/11:00am 18.9 17.4 10.7 59 4.5 N 9 13 5 7 1014.8 - 0.0
22/10:30am 17.1 15.6 10.5 65 3.5 NNE 9 11 5 6 1015.1 - 0.0
22/10:00am 15.9 14.0 10.4 70 2.9 NNE 11 17 6 9 1015.1 - 0.0
22/09:30am 15.1 13.0 9.9 71 2.7 ENE 11 17 6 9 1015.1 - 0.0
22/09:00am 14.8 11.9 9.8 72 2.6 NE 15 24 8 13 1014.7 1014.6 1.0
22/08:30am 13.8 10.7 10.4 80 1.8 NNE 17 24 9 13 1014.7 - 1.0
22/08:00am 13.5 11.6 10.5 82 1.6 NNE 11 19 6 10 1015.5 - 0.6
22/07:30am 13.8 13.9 10.0 78 2.0 CALM 0 0 0 0 1015.7 - 0.2
22/07:00am 15.1 13.3 8.1 63 3.5 ENE 7 11 4 6 1014.6 - 0.0
22/06:30am 15.3 13.5 7.8 61 3.8 ENE 7 11 4 6 1014.4 - 0.0
22/06:00am 15.3 13.6 7.6 60 3.9 ENE 6 7 3 4 1014.7 1014.6 0.0
22/05:30am 16.0 14.1 7.5 57 4.3 N 7 9 4 5 1014.6 - 0.0
22/05:00am 16.3 13.6 7.5 56 4.4 NW 11 19 6 10 1015.1 - 0.0
22/04:38am 15.6 11.4 7.6 59 4.0 WSW 19 26 10 14 1015.9 - 0.0
22/04:30am 15.7 12.6 7.2 57 4.2 WNW 13 19 7 10 1013.9 - 0.0
22/04:00am 16.3 12.8 7.3 55 4.5 N 15 24 8 13 1013.6 - 0.0
22/03:30am 16.5 12.6 7.2 54 4.7 N 17 22 9 12 1013.3 - 0.0
22/03:00am 16.7 13.2 7.1 53 4.8 N 15 28 8 15 1013.4 1013.3 0.0
22/02:30am 16.9 13.8 7.3 53 4.8 N 13 19 7 10 1013.4 - 0.0
22/02:00am 16.9 13.8 7.3 53 4.8 N 13 22 7 12 1013.4 - 0.0
22/01:30am 16.6 13.5 7.3 54 4.7 NNE 13 20 7 11 1013.4 - 0.0
22/01:00am 16.8 13.7 7.2 53 4.8 NNE 13 22 7 12 1013.7 - 0.0
22/12:30am 16.6 13.9 7.3 54 4.7 NNE 11 17 6 9 1014.0 - 0.0
22/12:00am 16.7 13.2 7.4 54 4.7 NNE 15 20 8 11 1014.1 1014.0 0.0
 
Date/Time
EST
Temp
°C
App
Temp
°C
Dew
Point
Rel
Hum
%
Delta-T
°C
Wind Press
QNH
hPa
Press
MSL
hPa
Rain
since 9 am
mm
Dir
 
Spd
km/h
Gust
km/h
Spd
kts
Gust
kts
21/11:30pm 16.2 12.4 7.4 56 4.4 NNE 17 22 9 12 1014.1 - 0.0

Other Formats:

Comma delimited format used in spreadsheet applications
http://www.bom.gov.au/fwo/IDV60801/IDV60801.94839.axf

JavaScript Object Notation format (JSON) in row-major order
http://www.bom.gov.au/fwo/IDV60801/IDV60801.94839.json